Time;durP1;ratioP1;P1;durP2;ratioP2;P2;SDS_P1;SDS_P2;PMS_P1;PMS_P2;Temp;Humidity;BMP_temperature;BMP_pressure;BME280_temperature;BME280_humidity;BME280_pressure;Samples;Min_cycle;Max_cycle;Signal;HPM_P1;HPM_P2
2021/06/05 00:02:17;;;;;;;9.63;8.50;;;;;;;15.35;74.39;99006.47;5041820;28;20033;-68
2021/06/05 00:04:42;;;;;;;9.93;8.70;;;;;;;15.30;74.39;99004.03;5042321;28;20028;-68
2021/06/05 00:07:08;;;;;;;9.50;8.60;;;;;;;15.29;74.74;99004.06;5039107;28;20064;-68
2021/06/05 00:09:34;;;;;;;11.38;10.07;;;;;;;15.20;75.79;98999.19;5041579;28;20064;-67
2021/06/05 00:11:59;;;;;;;9.27;8.48;;;;;;;15.21;74.88;98996.56;5048247;28;20716;-68
2021/06/05 00:14:24;;;;;;;9.30;8.40;;;;;;;15.19;75.28;98997.53;5043244;28;20037;-68
2021/06/05 00:16:50;;;;;;;9.40;8.60;;;;;;;15.17;75.46;99001.88;5043382;28;20025;-68
2021/06/05 00:19:19;;;;;;;10.07;8.98;;;;;;;15.15;75.49;98994.16;5058927;28;20024;-68
2021/06/05 00:21:45;;;;;;;10.80;9.68;;;;;;;15.12;74.93;99001.16;5044801;28;20370;-67
2021/06/05 00:24:11;;;;;;;9.65;8.65;;;;;;;15.09;75.11;98999.53;5043247;28;20082;-68
2021/06/05 00:26:37;;;;;;;9.68;8.77;;;;;;;15.06;75.01;99003.03;5042092;28;20142;-68
2021/06/05 00:29:03;;;;;;;10.18;9.07;;;;;;;15.02;75.58;98995.47;5041101;28;20750;-68
2021/06/05 00:31:29;;;;;;;10.05;9.10;;;;;;;14.96;76.09;98988.75;5038473;28;20040;-68
2021/06/05 00:33:55;;;;;;;11.10;9.32;;;;;;;14.88;76.78;98987.28;5042297;28;20033;-68
2021/06/05 00:36:21;;;;;;;9.10;8.27;;;;;;;14.89;76.80;98979.50;5042404;28;20289;-68
2021/06/05 00:38:46;;;;;;;11.63;9.52;;;;;;;14.91;76.54;98982.03;5041053;28;20029;-68
2021/06/05 00:41:16;;;;;;;10.07;9.18;;;;;;;14.94;76.01;98979.34;5040622;28;20382;-68
2021/06/05 00:43:49;;;;;;;9.50;8.70;;;;;;;14.90;76.89;98991.50;5041625;28;20392;-68
2021/06/05 00:46:17;;;;;;;10.07;9.05;;;;;;;14.83;76.83;98978.84;5043365;28;20032;-69
2021/06/05 00:48:42;;;;;;;9.98;9.10;;;;;;;14.82;77.27;98977.13;5042329;28;20313;-67
2021/06/05 00:51:08;;;;;;;9.88;8.98;;;;;;;14.78;76.60;98970.38;5041005;28;20029;-68
2021/06/05 00:53:35;;;;;;;9.50;8.60;;;;;;;14.75;76.69;98980.81;5043534;28;20031;-66
2021/06/05 00:56:03;;;;;;;9.55;8.65;;;;;;;14.76;76.76;98974.75;5040208;28;20311;-67
2021/06/05 00:58:30;;;;;;;9.82;8.93;;;;;;;14.70;77.02;98970.63;5058060;28;20040;-68
2021/06/05 01:01:17;;;;;;;10.07;9.15;;;;;;;14.69;77.45;98968.91;5041473;28;20087;-67
2021/06/05 01:03:43;;;;;;;10.38;9.40;;;;;;;14.67;77.27;98965.56;5039999;28;20370;-68
2021/06/05 01:06:31;;;;;;;11.38;9.77;;;;;;;14.68;77.09;98969.00;5041626;28;20047;-68
2021/06/05 01:09:19;;;;;;;10.70;9.25;;;;;;;14.69;76.67;98966.34;5042565;28;20048;-68
2021/06/05 01:12:09;;;;;;;10.25;9.23;;;;;;;14.62;77.27;98963.13;5043186;28;20071;-67
2021/06/05 01:14:54;;;;;;;10.40;9.02;;;;;;;14.53;77.57;98949.63;5040399;28;20029;-67
2021/06/05 01:17:27;;;;;;;10.38;9.38;;;;;;;14.52;78.17;98953.94;5041598;28;20571;-66
2021/06/05 01:20:08;;;;;;;9.65;8.65;;;;;;;14.51;78.06;98957.41;5040402;28;20183;-67
2021/06/05 01:22:46;;;;;;;11.30;10.25;;;;;;;14.47;78.49;98958.38;5042082;28;20072;-67
2021/06/05 01:25:23;;;;;;;11.88;9.43;;;;;;;14.41;78.28;98960.31;5040015;28;20029;-67
2021/06/05 01:27:55;;;;;;;12.82;10.45;;;;;;;14.40;79.07;98959.47;5040933;28;20080;-67
2021/06/05 01:30:27;;;;;;;11.45;9.90;;;;;;;14.36;78.86;98955.28;5039269;28;20036;-69
2021/06/05 01:32:56;;;;;;;12.10;10.38;;;;;;;14.32;78.42;98953.66;5041436;28;20272;-68
2021/06/05 01:35:24;;;;;;;11.20;10.23;;;;;;;14.32;78.77;98953.66;5038985;28;20033;-68
2021/06/05 01:37:50;;;;;;;11.70;10.43;;;;;;;14.31;79.09;98953.69;5042218;28;20025;-68
2021/06/05 01:40:16;;;;;;;12.07;10.77;;;;;;;14.31;79.30;98954.53;5040061;28;20103;-68
2021/06/05 01:42:45;;;;;;;10.82;9.82;;;;;;;14.29;79.32;98946.03;5039741;28;20643;-67
2021/06/05 01:45:18;;;;;;;11.35;10.20;;;;;;;14.25;79.41;98948.72;5043136;28;20029;-67
2021/06/05 01:47:44;;;;;;;10.65;9.65;;;;;;;14.18;79.68;98937.72;5046740;28;20087;-67
2021/06/05 01:50:11;;;;;;;10.50;9.52;;;;;;;14.17;79.58;98936.88;5046532;28;20089;-67
2021/06/05 01:52:39;;;;;;;10.30;9.30;;;;;;;14.15;79.81;98937.81;5043123;28;20037;-67
2021/06/05 01:55:07;;;;;;;12.55;11.20;;;;;;;14.11;80.21;98941.38;5046422;28;20259;-68
2021/06/05 01:57:35;;;;;;;10.85;9.75;;;;;;;14.12;80.38;98941.34;5047147;28;20043;-67
2021/06/05 02:00:01;;;;;;;12.02;10.93;;;;;;;14.11;80.46;98937.06;5045324;28;20057;-67
2021/06/05 02:02:27;;;;;;;12.45;11.25;;;;;;;14.13;80.84;98929.31;5046956;28;20068;-68
2021/06/05 02:04:53;;;;;;;11.68;10.35;;;;;;;14.16;80.51;98932.63;5042898;28;20057;-67
2021/06/05 02:07:19;;;;;;;12.25;10.95;;;;;;;14.17;80.41;98925.75;5043919;28;20406;-67
2021/06/05 02:09:45;;;;;;;10.55;9.50;;;;;;;14.18;80.51;98927.41;5045214;28;20359;-67
2021/06/05 02:12:18;;;;;;;10.68;9.68;;;;;;;14.25;80.23;98928.94;5042664;28;20037;-68
2021/06/05 02:14:51;;;;;;;11.73;10.63;;;;;;;14.26;79.75;98929.78;5057997;28;20044;-67
2021/06/05 02:17:19;;;;;;;11.75;10.68;;;;;;;14.18;79.71;98924.84;5045586;28;20037;-67
2021/06/05 02:19:47;;;;;;;11.43;10.30;;;;;;;14.16;79.86;98927.47;5043067;28;20040;-67
2021/06/05 02:22:17;;;;;;;11.10;9.60;;;;;;;14.15;80.57;98920.63;5045086;28;20030;-67
2021/06/05 02:24:46;;;;;;;10.18;9.20;;;;;;;14.13;80.41;98919.00;5045726;28;20037;-68
2021/06/05 02:27:17;;;;;;;10.82;9.77;;;;;;;14.08;80.57;98920.84;5042238;28;20036;-68
2021/06/05 02:29:44;;;;;;;10.63;9.63;;;;;;;14.06;80.90;98914.88;5043641;28;20358;-68
2021/06/05 02:32:15;;;;;;;10.82;9.82;;;;;;;14.04;81.05;98919.25;5042523;28;20056;-67
2021/06/05 02:34:42;;;;;;;12.43;11.23;;;;;;;14.00;81.50;98917.63;5043918;28;20052;-67
2021/06/05 02:37:11;;;;;;;11.10;10.05;;;;;;;13.95;81.25;98914.34;5042937;28;20037;-67
2021/06/05 02:39:39;;;;;;;10.98;9.95;;;;;;;13.95;81.70;98927.22;5042266;28;20132;-67
2021/06/05 02:42:12;;;;;;;11.18;10.18;;;;;;;14.00;81.06;98917.63;5042504;28;20025;-68
2021/06/05 02:44:42;;;;;;;11.43;10.13;;;;;;;13.99;81.71;98918.53;5043745;28;20124;-68
2021/06/05 02:47:08;;;;;;;12.35;10.55;;;;;;;13.94;81.18;98910.91;5046328;28;20037;-68
2021/06/05 02:49:36;;;;;;;11.20;10.20;;;;;;;13.93;81.48;98910.94;5042732;28;20041;-67
2021/06/05 02:52:34;;;;;;;12.40;11.10;;;;;;;13.91;81.35;98913.59;5043822;28;20120;-68
2021/06/05 02:55:10;;;;;;;11.82;10.77;;;;;;;13.85;81.92;98905.16;5037387;28;20095;-67
2021/06/05 02:57:35;;;;;;;11.52;9.70;;;;;;;13.84;81.85;98906.88;5044440;28;20040;-69
2021/06/05 03:00:04;;;;;;;12.00;10.43;;;;;;;13.83;82.01;98909.53;5045431;28;20047;-68
2021/06/05 03:02:30;;;;;;;12.63;10.50;;;;;;;13.80;81.10;98914.75;5042116;28;20112;-69
2021/06/05 03:04:56;;;;;;;11.30;10.20;;;;;;;13.79;81.73;98915.66;5044091;28;20168;-67
2021/06/05 03:07:21;;;;;;;11.48;10.32;;;;;;;13.84;81.74;98918.94;5045383;28;20063;-67
2021/06/05 03:09:47;;;;;;;11.80;10.60;;;;;;;13.85;81.75;98911.16;5045176;28;20038;-68
2021/06/05 03:12:14;;;;;;;12.13;11.02;;;;;;;13.95;81.90;98919.50;5041620;28;20068;-68
2021/06/05 03:14:41;;;;;;;11.15;10.15;;;;;;;13.92;81.27;98917.81;5043717;28;20037;-67
2021/06/05 03:17:08;;;;;;;10.70;9.68;;;;;;;13.93;81.92;98923.84;5043586;28;20025;-68
2021/06/05 03:19:34;;;;;;;14.30;11.07;;;;;;;14.06;81.63;98922.59;5042480;28;20322;-67
2021/06/05 03:21:59;;;;;;;12.07;10.82;;;;;;;14.20;79.88;98920.50;5045369;28;20028;-67
2021/06/05 03:24:25;;;;;;;11.98;10.50;;;;;;;14.19;79.79;98914.47;5043811;28;20174;-67
2021/06/05 03:26:51;;;;;;;11.00;9.88;;;;;;;14.14;80.00;98920.66;5044992;28;20070;-67
2021/06/05 03:29:17;;;;;;;11.93;10.70;;;;;;;14.06;79.92;98912.28;5040982;28;20473;-67
2021/06/05 03:31:42;;;;;;;11.10;10.00;;;;;;;14.06;80.38;98914.88;5041115;28;20041;-67
2021/06/05 03:34:07;;;;;;;11.70;10.05;;;;;;;14.05;80.09;98915.75;5039567;28;20037;-67
2021/06/05 03:36:34;;;;;;;10.90;9.88;;;;;;;14.14;79.86;98906.03;5043746;28;20076;-68
2021/06/05 03:39:00;;;;;;;10.68;9.77;;;;;;;14.12;79.62;98907.81;5041002;28;20033;-67
2021/06/05 03:41:26;;;;;;;11.25;10.02;;;;;;;14.24;79.28;98904.03;5043091;28;20106;-68
2021/06/05 03:43:51;;;;;;;11.35;10.35;;;;;;;14.31;79.29;98913.28;5040076;28;20037;-68
2021/06/05 03:46:16;;;;;;;10.18;9.35;;;;;;;14.36;79.75;98903.69;5045523;28;20048;-67
2021/06/05 03:48:42;;;;;;;12.40;11.10;;;;;;;14.46;79.42;98912.03;5040479;28;20045;-68
2021/06/05 03:51:08;;;;;;;11.32;9.50;;;;;;;14.61;79.03;98914.13;5049157;28;20040;-68
2021/06/05 03:53:35;;;;;;;11.10;10.00;;;;;;;14.70;79.66;98906.09;5039201;28;20072;-67
2021/06/05 03:56:01;;;;;;;10.57;9.27;;;;;;;14.90;79.10;98919.22;5040119;28;20068;-68
2021/06/05 03:58:36;;;;;;;11.77;10.52;;;;;;;15.08;78.08;98920.38;5041119;28;20081;-68
2021/06/05 04:01:02;;;;;;;10.18;9.27;;;;;;;15.22;76.87;98904.44;5042223;28;20044;-67
2021/06/05 04:03:27;;;;;;;10.38;9.48;;;;;;;15.39;76.53;98915.88;5044923;28;20539;-67
2021/06/05 04:05:53;;;;;;;11.32;10.23;;;;;;;15.50;75.55;98916.38;5042567;28;20037;-67
2021/06/05 04:08:18;;;;;;;10.23;9.35;;;;;;;15.65;75.13;98915.03;5041255;28;20049;-68
2021/06/05 04:10:44;;;;;;;9.77;8.73;;;;;;;15.92;73.89;98918.34;5042958;28;20025;-67
2021/06/05 04:13:09;;;;;;;11.48;10.35;;;;;;;16.00;72.38;98921.50;5043515;28;20377;-68
2021/06/05 04:15:34;;;;;;;10.60;9.50;;;;;;;16.21;73.09;98918.13;5042315;28;20071;-67
2021/06/05 04:18:11;;;;;;;12.25;10.18;;;;;;;16.41;70.80;98926.03;5042599;28;20029;-67
2021/06/05 04:20:38;;;;;;;9.32;8.52;;;;;;;16.60;70.50;98925.34;5042385;28;20064;-69
2021/06/05 04:23:05;;;;;;;10.20;9.30;;;;;;;16.61;71.08;98927.88;5042795;28;20060;-67
2021/06/05 04:25:31;;;;;;;10.35;9.35;;;;;;;16.71;71.20;98920.59;5044156;28;20030;-67
2021/06/05 04:27:56;;;;;;;9.80;8.80;;;;;;;16.76;70.44;98923.84;5050295;28;20409;-68
2021/06/05 04:30:25;;;;;;;11.10;9.82;;;;;;;16.89;70.87;98925.88;5043815;28;20025;-68
2021/06/05 04:32:51;;;;;;;11.57;10.18;;;;;;;16.96;70.66;98926.50;5057363;28;20041;-68
2021/06/05 04:35:18;;;;;;;10.68;9.75;;;;;;;17.04;70.35;98929.63;5050978;28;20108;-68
2021/06/05 04:37:44;;;;;;;11.02;10.07;;;;;;;17.06;69.99;98925.19;5040731;28;20445;-68
2021/06/05 04:40:10;;;;;;;10.68;9.68;;;;;;;17.19;70.17;98928.97;5041117;28;20112;-67
2021/06/05 04:42:35;;;;;;;10.00;9.02;;;;;;;17.28;69.48;98920.00;5043849;28;20021;-67
2021/06/05 04:45:02;;;;;;;9.45;8.55;;;;;;;17.29;69.09;98919.94;5039649;28;20445;-68
2021/06/05 04:47:27;;;;;;;10.40;9.40;;;;;;;17.11;69.54;98904.28;5041329;28;20688;-68
2021/06/05 04:49:53;;;;;;;11.05;9.95;;;;;;;17.27;68.70;98916.56;5042415;28;20121;-69
2021/06/05 04:52:18;;;;;;;9.45;8.55;;;;;;;17.30;68.90;98903.50;5049733;28;20044;-68
2021/06/05 04:54:43;;;;;;;10.75;9.57;;;;;;;17.40;68.61;98903.91;5042349;28;20032;-68
2021/06/05 04:57:09;;;;;;;9.85;8.85;;;;;;;17.50;68.11;98902.63;5041153;28;20037;-68
2021/06/05 04:59:34;;;;;;;10.63;9.52;;;;;;;17.58;67.98;98907.53;5040889;28;20515;-68
2021/06/05 05:02:00;;;;;;;10.52;8.50;;;;;;;17.65;67.68;98901.19;5043136;28;20064;-69
2021/06/05 05:04:25;;;;;;;9.95;8.93;;;;;;;17.83;66.87;98897.78;5039185;28;20390;-68
2021/06/05 05:06:51;;;;;;;10.77;9.85;;;;;;;17.92;66.98;98897.38;5038670;28;20446;-70
2021/06/05 05:09:17;;;;;;;10.45;9.60;;;;;;;17.90;66.91;98895.75;5039389;28;20112;-68
2021/06/05 05:11:43;;;;;;;10.50;9.55;;;;;;;17.87;67.18;98903.66;5041080;28;20057;-68
2021/06/05 05:14:10;;;;;;;9.10;8.30;;;;;;;18.11;66.71;98906.03;5043258;28;20039;-68
2021/06/05 05:16:35;;;;;;;9.40;8.55;;;;;;;18.17;66.29;98910.94;5037910;28;20059;-68
2021/06/05 05:19:01;;;;;;;8.80;8.00;;;;;;;18.38;65.49;98903.06;5041102;28;20032;-69
2021/06/05 05:21:28;;;;;;;9.80;8.90;;;;;;;18.39;66.22;98903.00;5046965;28;20033;-68
2021/06/05 05:23:54;;;;;;;10.10;8.95;;;;;;;18.35;65.90;98905.81;5048492;28;20033;-68
2021/06/05 05:26:21;;;;;;;9.50;8.73;;;;;;;18.55;65.27;98905.75;5044276;28;20029;-68
2021/06/05 05:28:49;;;;;;;10.48;9.52;;;;;;;18.62;65.52;98907.16;5044566;28;20033;-69
2021/06/05 05:31:19;;;;;;;9.15;8.25;;;;;;;18.68;64.70;98904.25;5045584;28;20054;-69
2021/06/05 05:33:45;;;;;;;10.88;9.80;;;;;;;18.70;65.35;98894.66;5045586;28;20030;-68
2021/06/05 05:36:23;;;;;;;9.75;8.93;;;;;;;18.91;64.06;98906.63;5043762;28;20040;-68
2021/06/05 05:38:49;;;;;;;9.43;8.60;;;;;;;18.99;63.14;98907.09;5042982;28;20033;-67
2021/06/05 05:41:17;;;;;;;8.48;7.78;;;;;;;19.07;62.93;98915.34;5048061;28;20108;-66
2021/06/05 05:43:43;;;;;;;10.23;9.43;;;;;;;19.18;62.78;98904.41;5043750;28;20022;-67
2021/06/05 05:46:10;;;;;;;9.23;8.48;;;;;;;19.10;62.77;98911.75;5045722;28;20381;-66
2021/06/05 05:48:37;;;;;;;8.93;8.15;;;;;;;19.18;62.92;98907.00;5046120;28;20025;-67
2021/06/05 05:51:04;;;;;;;9.77;8.77;;;;;;;19.09;62.14;98912.69;5046537;28;20040;-66
2021/06/05 05:53:30;;;;;;;9.57;8.73;;;;;;;19.18;62.57;98897.47;5044808;28;20040;-66
2021/06/05 05:55:56;;;;;;;8.88;8.18;;;;;;;19.26;62.03;98906.66;5043781;28;20024;-67
2021/06/05 05:58:23;;;;;;;10.25;9.20;;;;;;;19.33;62.59;98900.22;5042584;28;20035;-67
2021/06/05 06:00:50;;;;;;;9.23;8.32;;;;;;;19.29;62.14;98907.34;5048058;28;20127;-66
2021/06/05 06:03:17;;;;;;;9.00;8.30;;;;;;;19.53;62.36;98902.69;5043449;28;20029;-66
2021/06/05 06:05:42;;;;;;;10.95;9.68;;;;;;;19.71;61.52;98906.09;5042051;28;20063;-66
2021/06/05 06:08:10;;;;;;;9.98;9.07;;;;;;;19.74;61.87;98900.75;5043229;28;20099;-66
2021/06/05 06:10:36;;;;;;;9.57;8.68;;;;;;;19.70;61.91;98905.25;5042667;28;20116;-63
2021/06/05 06:13:03;;;;;;;9.30;8.07;;;;;;;19.65;62.04;98911.66;5045081;28;20120;-65
2021/06/05 06:15:29;;;;;;;9.18;8.25;;;;;;;19.67;62.99;98912.41;5044455;28;20044;-66
2021/06/05 06:17:56;;;;;;;10.27;7.93;;;;;;;20.03;62.41;98907.88;5043530;28;20029;-66
2021/06/05 06:20:26;;;;;;;9.10;8.35;;;;;;;20.12;60.80;98919.56;5041495;28;20033;-67
2021/06/05 06:22:52;;;;;;;9.35;8.23;;;;;;;20.08;60.52;98917.13;5041063;28;20029;-67
2021/06/05 06:25:21;;;;;;;9.70;8.70;;;;;;;20.15;60.38;98914.22;5042066;28;20480;-66
2021/06/05 06:27:48;;;;;;;9.00;8.27;;;;;;;20.19;59.87;98918.31;5042327;28;20040;-66
2021/06/05 06:30:24;;;;;;;7.88;7.28;;;;;;;20.63;58.21;98916.78;5057231;28;20098;-66
2021/06/05 06:32:52;;;;;;;10.18;9.18;;;;;;;20.98;57.14;98917.41;5043609;28;20037;-66
2021/06/05 06:35:26;;;;;;;7.93;7.07;;;;;;;21.20;56.58;98922.28;5048143;28;20040;-66
2021/06/05 06:37:52;;;;;;;9.00;8.30;;;;;;;21.40;56.16;98920.19;5042330;28;20429;-66
2021/06/05 06:40:27;;;;;;;9.75;8.88;;;;;;;21.58;55.77;98907.00;5043598;28;20067;-66
2021/06/05 06:42:53;;;;;;;8.40;7.60;;;;;;;21.70;55.47;98912.34;5047581;28;20028;-66
2021/06/05 06:45:18;;;;;;;8.38;7.57;;;;;;;21.96;54.64;98904.75;5056673;28;20563;-66
2021/06/05 06:47:44;;;;;;;8.30;7.50;;;;;;;21.69;54.09;98902.81;5042902;28;20043;-66
2021/06/05 06:50:13;;;;;;;8.35;7.68;;;;;;;21.68;55.06;98908.16;5040395;28;20306;-66
2021/06/05 06:52:38;;;;;;;8.82;7.93;;;;;;;21.36;56.03;98900.44;5045255;28;20029;-66
2021/06/05 06:55:05;;;;;;;8.20;7.57;;;;;;;21.78;55.59;98897.06;5042466;28;20331;-66
2021/06/05 06:57:31;;;;;;;7.82;7.22;;;;;;;22.08;54.88;98904.81;5042242;28;20033;-66
2021/06/05 06:59:57;;;;;;;7.60;6.93;;;;;;;22.30;54.33;98907.81;5041633;28;20029;-66
2021/06/05 07:02:22;;;;;;;7.75;7.15;;;;;;;22.38;54.06;98898.63;5042657;28;20052;-67
2021/06/05 07:04:50;;;;;;;8.85;7.95;;;;;;;22.56;52.97;98895.72;5043404;28;20039;-66
2021/06/05 07:07:16;;;;;;;7.43;6.93;;;;;;;22.66;52.57;98896.78;5042580;28;20573;-66
2021/06/05 07:09:42;;;;;;;8.82;7.93;;;;;;;22.87;52.45;98899.84;5044376;28;20509;-66
2021/06/05 07:12:08;;;;;;;8.90;7.70;;;;;;;22.83;52.41;98897.53;5042225;28;20038;-66
2021/06/05 07:14:33;;;;;;;7.82;7.13;;;;;;;22.90;52.87;98894.41;5041506;28;20378;-66
2021/06/05 07:17:00;;;;;;;8.35;7.63;;;;;;;23.07;52.13;98882.84;5042415;28;20036;-66
2021/06/05 07:19:26;;;;;;;6.82;6.32;;;;;;;23.19;52.13;98888.13;5041367;28;20047;-66
2021/06/05 07:21:52;;;;;;;7.65;6.95;;;;;;;23.16;52.39;98888.34;5038817;28;20024;-67
2021/06/05 07:24:17;;;;;;;8.95;7.35;;;;;;;23.23;52.66;98880.91;5041885;28;20090;-66
2021/06/05 07:26:43;;;;;;;7.32;6.63;;;;;;;23.14;52.09;98882.34;5043070;28;20113;-66
2021/06/05 07:29:11;;;;;;;7.80;7.15;;;;;;;23.30;51.56;98878.72;5042701;28;20499;-66
2021/06/05 07:31:49;;;;;;;7.95;7.20;;;;;;;23.56;51.08;98877.81;5041840;28;20040;-69
2021/06/05 07:34:15;;;;;;;11.73;8.18;;;;;;;23.58;50.94;98870.72;5043574;28;20219;-69
2021/06/05 07:36:48;;;;;;;8.18;7.47;;;;;;;23.86;50.03;98875.72;5042625;28;20029;-69
2021/06/05 07:39:16;;;;;;;8.55;7.78;;;;;;;23.87;50.46;98873.94;5041854;28;20295;-69
2021/06/05 07:41:43;;;;;;;9.20;8.27;;;;;;;23.84;49.80;98869.78;5038921;28;20282;-69
2021/06/05 07:44:09;;;;;;;9.10;8.15;;;;;;;23.86;49.82;98869.66;5039875;28;20036;-69
2021/06/05 07:46:40;;;;;;;8.25;7.60;;;;;;;23.71;50.00;98871.56;5042930;28;20029;-68
2021/06/05 07:49:05;;;;;;;9.25;8.35;;;;;;;23.67;50.20;98870.09;5042364;28;20033;-69
2021/06/05 07:51:31;;;;;;;7.93;7.32;;;;;;;23.88;49.57;98871.22;5042298;28;20087;-69
2021/06/05 07:53:56;;;;;;;8.65;7.75;;;;;;;23.96;49.36;98875.94;5042793;28;20044;-70
2021/06/05 07:56:22;;;;;;;15.48;9.05;;;;;;;24.12;49.04;98869.50;5040438;28;20467;-70
2021/06/05 07:58:47;;;;;;;8.02;7.30;;;;;;;24.35;48.38;98873.16;5058161;28;20068;-69
2021/06/05 08:01:13;;;;;;;8.88;8.05;;;;;;;24.45;48.52;98874.16;5041321;28;20118;-68
2021/06/05 08:03:38;;;;;;;9.75;8.00;;;;;;;24.43;48.46;98862.13;5043133;28;20021;-69
2021/06/05 08:06:04;;;;;;;10.50;8.43;;;;;;;24.37;48.74;98860.78;5043332;28;20020;-69
2021/06/05 08:08:29;;;;;;;8.35;7.75;;;;;;;24.60;48.25;98866.16;5044094;28;20045;-70
2021/06/05 08:10:55;;;;;;;9.18;7.90;;;;;;;24.53;48.43;98866.59;5043464;28;20025;-69
2021/06/05 08:13:21;;;;;;;8.30;7.60;;;;;;;24.59;48.16;98870.56;5041991;28;20064;-69
2021/06/05 08:15:49;;;;;;;7.40;6.80;;;;;;;25.03;47.75;98856.84;5044771;28;20036;-68
2021/06/05 08:18:15;;;;;;;9.70;8.60;;;;;;;24.85;47.71;98855.56;5043545;28;20016;-69
2021/06/05 08:20:46;;;;;;;8.10;7.40;;;;;;;25.00;47.22;98851.81;5042471;28;20341;-69
2021/06/05 08:23:13;;;;;;;8.90;7.93;;;;;;;24.95;47.27;98851.34;5042406;28;20277;-67
2021/06/05 08:25:39;;;;;;;9.32;8.52;;;;;;;25.08;47.37;98851.28;5042798;28;20060;-70
2021/06/05 08:28:07;;;;;;;8.18;7.40;;;;;;;25.14;46.75;98846.38;5041989;28;20091;-70
2021/06/05 08:30:40;;;;;;;10.15;8.10;;;;;;;25.41;47.59;98843.47;5040899;28;20017;-69
2021/06/05 08:33:07;;;;;;;8.80;8.00;;;;;;;25.45;46.71;98843.13;5056404;28;20041;-71
2021/06/05 08:35:34;;;;;;;8.55;7.55;;;;;;;25.26;46.26;98850.72;5039502;28;20053;-68
2021/06/05 08:37:59;;;;;;;8.73;7.82;;;;;;;25.32;45.95;98844.16;5043368;28;20028;-70
2021/06/05 08:40:38;;;;;;;8.75;7.60;;;;;;;25.45;46.74;98842.28;5041896;28;20128;-70
2021/06/05 08:43:03;;;;;;;9.23;8.43;;;;;;;25.46;46.51;98839.53;5042143;28;20116;-69
2021/06/05 08:45:31;;;;;;;8.48;7.78;;;;;;;25.39;47.21;98840.94;5042071;28;20128;-70
2021/06/05 08:48:02;;;;;;;9.25;8.38;;;;;;;25.58;46.31;98840.44;5041153;28;20041;-70
2021/06/05 08:50:30;;;;;;;9.13;8.43;;;;;;;25.41;46.52;98843.47;5042095;28;20556;-68
2021/06/05 08:53:09;;;;;;;9.07;8.27;;;;;;;25.58;46.21;98844.84;5041780;28;20065;-68
2021/06/05 08:55:51;;;;;;;8.52;7.82;;;;;;;25.70;45.60;98847.34;5042927;28;20029;-67
2021/06/05 08:58:49;;;;;;;9.60;8.43;;;;;;;25.88;45.78;98843.31;5029531;28;20574;-68
2021/06/05 09:01:26;;;;;;;11.48;8.63;;;;;;;25.97;45.37;98841.72;5039860;28;20036;-68
2021/06/05 09:04:13;;;;;;;8.63;7.75;;;;;;;26.05;45.64;98844.63;5040990;28;20043;-64
2021/06/05 09:06:46;;;;;;;8.27;7.47;;;;;;;26.06;46.02;98834.91;5053507;28;20048;-66
2021/06/05 09:09:17;;;;;;;9.75;8.18;;;;;;;26.40;46.03;98835.72;5040872;28;20036;-67
2021/06/05 09:11:43;;;;;;;8.10;7.30;;;;;;;26.48;44.94;98835.97;5043491;28;20032;-66
2021/06/05 09:14:08;;;;;;;7.80;7.03;;;;;;;26.58;44.22;98834.25;5040358;28;20032;-66
2021/06/05 09:16:46;;;;;;;9.57;8.27;;;;;;;26.47;45.08;98835.13;5041617;28;20021;-66
2021/06/05 09:19:29;;;;;;;10.82;8.50;;;;;;;26.48;44.58;98842.03;5042425;28;20025;-66
2021/06/05 09:22:07;;;;;;;8.60;7.80;;;;;;;26.45;44.31;98836.19;5041059;28;20033;-66
2021/06/05 09:24:37;;;;;;;9.05;8.25;;;;;;;26.47;44.57;98834.28;5040604;28;20103;-67
2021/06/05 09:27:10;;;;;;;8.82;7.90;;;;;;;26.59;44.45;98839.38;5043074;28;20037;-67
2021/06/05 09:30:04;;;;;;;8.05;7.35;;;;;;;26.74;44.03;98826.78;5042602;28;20029;-67
2021/06/05 09:32:30;;;;;;;8.55;7.82;;;;;;;26.48;45.04;98830.72;5041348;28;20112;-66
2021/06/05 09:35:05;;;;;;;9.57;8.80;;;;;;;26.49;44.57;98827.09;5040527;28;20037;-67
2021/06/05 09:37:41;;;;;;;9.00;8.10;;;;;;;26.53;44.24;98823.25;5042269;28;20025;-66
2021/06/05 09:40:22;;;;;;;9.75;8.30;;;;;;;26.73;44.06;98815.41;5040478;28;20032;-66
2021/06/05 09:43:11;;;;;;;8.63;7.97;;;;;;;26.86;43.89;98814.47;5038997;28;20104;-63
2021/06/05 09:45:39;;;;;;;8.73;8.13;;;;;;;27.24;43.58;98815.53;5035052;28;20123;-68
2021/06/05 09:48:36;;;;;;;9.38;7.88;;;;;;;27.30;42.88;98808.94;5040825;28;20064;-67
2021/06/05 09:51:38;;;;;;;9.10;8.43;;;;;;;27.25;42.71;98814.56;5038313;28;20110;-66
2021/06/05 09:54:36;;;;;;;8.30;7.53;;;;;;;27.41;42.37;98813.28;5040473;28;20057;-67
2021/06/05 09:57:18;;;;;;;8.77;7.93;;;;;;;27.37;41.91;98811.88;5012391;28;20433;-67
2021/06/05 10:00:09;;;;;;;8.45;7.38;;;;;;;27.61;41.43;98815.09;5053950;28;20032;-66
2021/06/05 10:02:36;;;;;;;9.98;9.15;;;;;;;27.52;41.88;98814.06;5037688;28;20080;-68
2021/06/05 10:05:05;;;;;;;9.57;8.73;;;;;;;27.77;41.97;98814.59;5048143;28;20033;-69
2021/06/05 10:07:30;;;;;;;9.35;8.52;;;;;;;27.97;41.97;98806.63;5043763;28;20486;-68
2021/06/05 10:10:05;;;;;;;9.27;8.48;;;;;;;28.01;41.41;98810.66;5044679;28;20595;-67
2021/06/05 10:12:36;;;;;;;9.35;8.40;;;;;;;27.97;41.12;98808.41;5044043;28;20116;-67
2021/06/05 10:15:05;;;;;;;9.23;8.43;;;;;;;28.01;40.88;98808.03;5044350;28;20026;-67
2021/06/05 10:17:46;;;;;;;10.07;9.23;;;;;;;27.90;40.94;98813.41;5044871;28;20021;-67
2021/06/05 10:20:41;;;;;;;10.73;8.50;;;;;;;28.20;40.67;98803.81;5045031;28;20029;-67
2021/06/05 10:23:08;;;;;;;9.00;8.20;;;;;;;28.32;40.47;98803.56;5046048;28;20521;-67
2021/06/05 10:25:37;;;;;;;10.38;9.48;;;;;;;28.43;39.99;98806.06;5042988;28;20115;-66
2021/06/05 10:28:10;;;;;;;9.15;8.45;;;;;;;28.56;40.25;98811.06;5045589;28;20030;-66
2021/06/05 10:30:41;;;;;;;8.13;7.63;;;;;;;28.70;39.26;98802.78;5043657;28;20026;-67
2021/06/05 10:33:15;;;;;;;9.20;8.30;;;;;;;28.81;39.28;98794.75;5045058;28;20409;-66
2021/06/05 10:35:43;;;;;;;10.10;9.18;;;;;;;28.20;39.86;98796.72;5044179;28;20033;-66
2021/06/05 10:38:29;;;;;;;8.82;8.23;;;;;;;28.65;39.62;98804.97;5045780;28;20033;-66
2021/06/05 10:40:55;;;;;;;9.27;8.10;;;;;;;28.94;38.70;98792.63;5056303;28;20016;-67
2021/06/05 10:43:20;;;;;;;8.57;7.75;;;;;;;29.13;38.63;98789.13;5045845;28;20039;-67
2021/06/05 10:45:49;;;;;;;9.18;8.48;;;;;;;29.43;38.65;98788.94;5044551;28;20402;-66
2021/06/05 10:48:38;;;;;;;9.57;8.77;;;;;;;29.24;38.37;98788.16;5043832;28;20014;-66
2021/06/05 10:51:12;;;;;;;8.20;7.60;;;;;;;29.44;37.93;98784.50;5041774;28;20033;-66
2021/06/05 10:53:40;;;;;;;9.02;8.23;;;;;;;29.66;36.96;98789.44;5043269;28;20143;-66
2021/06/05 10:56:16;;;;;;;9.38;8.48;;;;;;;29.90;37.05;98788.94;5044248;28;20025;-66
2021/06/05 10:58:50;;;;;;;8.80;8.20;;;;;;;29.86;36.56;98782.22;5040801;28;20295;-67
2021/06/05 11:01:22;;;;;;;8.10;7.47;;;;;;;29.70;36.12;98776.75;5043598;28;20025;-66
2021/06/05 11:04:12;;;;;;;9.27;8.45;;;;;;;29.50;36.61;98773.34;5043128;28;20108;-66
2021/06/05 11:06:47;;;;;;;7.55;6.97;;;;;;;29.61;35.82;98767.88;5027128;28;20064;-66
2021/06/05 11:09:26;;;;;;;7.90;7.20;;;;;;;29.89;35.39;98763.47;5042785;28;20028;-66
2021/06/05 11:11:53;;;;;;;8.07;7.45;;;;;;;30.20;36.04;98761.31;5045181;28;20032;-67
2021/06/05 11:14:21;;;;;;;9.02;8.18;;;;;;;30.72;35.44;98757.06;5044659;28;20082;-66
2021/06/05 11:16:59;;;;;;;8.05;7.35;;;;;;;30.20;33.55;98761.31;5044994;28;20033;-66
2021/06/05 11:19:43;;;;;;;7.30;6.60;;;;;;;30.30;32.21;98760.25;5042641;28;20041;-66
2021/06/05 11:22:16;;;;;;;7.60;6.90;;;;;;;30.34;34.01;98756.34;5045272;28;20025;-66
2021/06/05 11:25:03;;;;;;;9.03;8.37;;;;;;;30.18;34.01;98761.47;5043239;28;20337;-66
2021/06/05 11:27:38;;;;;;;8.50;7.95;;;;;;;30.34;33.74;98751.03;5043740;28;20037;-66
2021/06/05 11:30:21;;;;;;;;;;;;;;;30.76;34.15;98750.47;5041589;28;20040;-66
2021/06/05 11:32:59;;;;;;;7.95;7.38;;;;;;;30.12;34.39;98748.03;5043403;28;19924;-66
2021/06/05 11:35:36;;;;;;;5.93;5.55;;;;;;;29.76;29.29;98739.13;5043400;28;20133;-66
2021/06/05 11:38:26;;;;;;;5.90;5.40;;;;;;;29.70;29.31;98745.88;5043157;28;20390;-66
2021/06/05 11:41:12;;;;;;;5.60;5.30;;;;;;;30.36;29.36;98738.50;5042854;28;20040;-66
2021/06/05 11:43:40;;;;;;;11.13;7.50;;;;;;;30.40;33.53;98739.88;5041821;28;20127;-66